sensor_id;sensor_type;location;lat;lon;timestamp;P1;durP1;ratioP1;P2;durP2;ratioP2
76320;SDS011;65132;52.088;5.402;2022-12-26T00:01:10;20.27;;;9.07;;
76320;SDS011;65132;52.088;5.402;2022-12-26T00:03:38;21.17;;;9.18;;
76320;SDS011;65132;52.088;5.402;2022-12-26T00:06:10;22.05;;;8.70;;
76320;SDS011;65132;52.088;5.402;2022-12-26T00:08:41;20.13;;;9.10;;
76320;SDS011;65132;52.088;5.402;2022-12-26T00:11:08;20.58;;;9.50;;
76320;SDS011;65132;52.088;5.402;2022-12-26T00:13:36;18.35;;;7.95;;
76320;SDS011;65132;52.088;5.402;2022-12-26T00:16:14;24.70;;;9.80;;
76320;SDS011;65132;52.088;5.402;2022-12-26T00:18:43;19.92;;;8.18;;
76320;SDS011;65132;52.088;5.402;2022-12-26T00:21:11;21.85;;;9.85;;
76320;SDS011;65132;52.088;5.402;2022-12-26T00:23:39;21.60;;;8.70;;
76320;SDS011;65132;52.088;5.402;2022-12-26T00:26:10;22.27;;;10.07;;
76320;SDS011;65132;52.088;5.402;2022-12-26T00:28:41;21.90;;;10.77;;
76320;SDS011;65132;52.088;5.402;2022-12-26T00:31:09;23.25;;;9.88;;
76320;SDS011;65132;52.088;5.402;2022-12-26T00:33:38;23.92;;;9.52;;
76320;SDS011;65132;52.088;5.402;2022-12-26T00:36:12;25.10;;;9.25;;
76320;SDS011;65132;52.088;5.402;2022-12-26T00:38:41;28.17;;;9.73;;
76320;SDS011;65132;52.088;5.402;2022-12-26T00:41:09;30.02;;;10.32;;
76320;SDS011;65132;52.088;5.402;2022-12-26T00:43:36;28.15;;;10.65;;
76320;SDS011;65132;52.088;5.402;2022-12-26T00:46:03;27.20;;;9.23;;
76320;SDS011;65132;52.088;5.402;2022-12-26T00:48:30;26.35;;;9.13;;
76320;SDS011;65132;52.088;5.402;2022-12-26T00:50:57;30.85;;;11.30;;
76320;SDS011;65132;52.088;5.402;2022-12-26T00:53:24;30.70;;;9.90;;
76320;SDS011;65132;52.088;5.402;2022-12-26T00:55:51;27.23;;;10.13;;
76320;SDS011;65132;52.088;5.402;2022-12-26T00:58:18;29.05;;;9.93;;
76320;SDS011;65132;52.088;5.402;2022-12-26T01:00:46;24.38;;;8.57;;
76320;SDS011;65132;52.088;5.402;2022-12-26T01:03:13;21.80;;;8.00;;
76320;SDS011;65132;52.088;5.402;2022-12-26T01:05:41;18.40;;;8.73;;
76320;SDS011;65132;52.088;5.402;2022-12-26T01:08:12;21.67;;;8.13;;
76320;SDS011;65132;52.088;5.402;2022-12-26T01:10:49;23.48;;;8.02;;
76320;SDS011;65132;52.088;5.402;2022-12-26T01:13:15;21.27;;;8.48;;
76320;SDS011;65132;52.088;5.402;2022-12-26T01:15:49;24.30;;;9.70;;
76320;SDS011;65132;52.088;5.402;2022-12-26T01:18:17;25.40;;;10.35;;
76320;SDS011;65132;52.088;5.402;2022-12-26T01:20:43;27.45;;;9.20;;
76320;SDS011;65132;52.088;5.402;2022-12-26T01:23:10;34.80;;;12.20;;
76320;SDS011;65132;52.088;5.402;2022-12-26T01:25:37;30.85;;;11.43;;
76320;SDS011;65132;52.088;5.402;2022-12-26T01:28:24;30.02;;;10.68;;
76320;SDS011;65132;52.088;5.402;2022-12-26T01:30:51;28.73;;;10.48;;
76320;SDS011;65132;52.088;5.402;2022-12-26T01:33:18;27.17;;;11.23;;
76320;SDS011;65132;52.088;5.402;2022-12-26T01:35:47;27.17;;;10.45;;
76320;SDS011;65132;52.088;5.402;2022-12-26T01:38:18;27.23;;;11.57;;
76320;SDS011;65132;52.088;5.402;2022-12-26T01:40:45;27.38;;;11.00;;
76320;SDS011;65132;52.088;5.402;2022-12-26T01:43:12;26.63;;;11.27;;
76320;SDS011;65132;52.088;5.402;2022-12-26T01:45:40;26.30;;;10.90;;
76320;SDS011;65132;52.088;5.402;2022-12-26T01:48:18;24.90;;;9.90;;
76320;SDS011;65132;52.088;5.402;2022-12-26T01:51:00;24.38;;;9.52;;
76320;SDS011;65132;52.088;5.402;2022-12-26T01:53:42;24.73;;;11.00;;
76320;SDS011;65132;52.088;5.402;2022-12-26T01:56:14;27.25;;;9.43;;
76320;SDS011;65132;52.088;5.402;2022-12-26T01:58:47;32.60;;;13.18;;
76320;SDS011;65132;52.088;5.402;2022-12-26T02:01:17;29.58;;;12.02;;
76320;SDS011;65132;52.088;5.402;2022-12-26T02:03:46;28.52;;;11.77;;
76320;SDS011;65132;52.088;5.402;2022-12-26T02:06:13;29.10;;;11.23;;
76320;SDS011;65132;52.088;5.402;2022-12-26T02:08:40;33.70;;;12.27;;
76320;SDS011;65132;52.088;5.402;2022-12-26T02:11:14;33.92;;;13.18;;
76320;SDS011;65132;52.088;5.402;2022-12-26T02:13:45;31.48;;;12.57;;
76320;SDS011;65132;52.088;5.402;2022-12-26T02:16:14;31.85;;;11.85;;
76320;SDS011;65132;52.088;5.402;2022-12-26T02:18:41;31.17;;;12.52;;
76320;SDS011;65132;52.088;5.402;2022-12-26T02:24:46;30.55;;;11.73;;
76320;SDS011;65132;52.088;5.402;2022-12-26T02:46:05;29.35;;;13.45;;
76320;SDS011;65132;52.088;5.402;2022-12-26T02:51:20;34.20;;;15.90;;
76320;SDS011;65132;52.088;5.402;2022-12-26T02:54:17;32.17;;;14.02;;
76320;SDS011;65132;52.088;5.402;2022-12-26T02:56:52;36.97;;;14.25;;
76320;SDS011;65132;52.088;5.402;2022-12-26T02:59:44;34.08;;;13.88;;
76320;SDS011;65132;52.088;5.402;2022-12-26T03:03:09;36.58;;;14.38;;
76320;SDS011;65132;52.088;5.402;2022-12-26T03:05:29;32.15;;;14.07;;
76320;SDS011;65132;52.088;5.402;2022-12-26T03:08:00;30.65;;;12.48;;
76320;SDS011;65132;52.088;5.402;2022-12-26T03:10:29;29.85;;;13.32;;
76320;SDS011;65132;52.088;5.402;2022-12-26T03:13:01;31.83;;;12.98;;
76320;SDS011;65132;52.088;5.402;2022-12-26T03:15:31;27.13;;;12.57;;
76320;SDS011;65132;52.088;5.402;2022-12-26T03:18:02;32.88;;;14.65;;
76320;SDS011;65132;52.088;5.402;2022-12-26T03:20:32;31.38;;;14.13;;
76320;SDS011;65132;52.088;5.402;2022-12-26T03:23:05;34.50;;;13.02;;
76320;SDS011;65132;52.088;5.402;2022-12-26T03:25:54;29.40;;;12.85;;
76320;SDS011;65132;52.088;5.402;2022-12-26T03:28:22;29.38;;;12.48;;
76320;SDS011;65132;52.088;5.402;2022-12-26T03:30:50;26.83;;;12.70;;
76320;SDS011;65132;52.088;5.402;2022-12-26T03:35:47;29.52;;;13.93;;
76320;SDS011;65132;52.088;5.402;2022-12-26T03:38:13;31.33;;;14.93;;
76320;SDS011;65132;52.088;5.402;2022-12-26T03:49:14;25.95;;;12.73;;
76320;SDS011;65132;52.088;5.402;2022-12-26T03:51:50;26.13;;;12.55;;
76320;SDS011;65132;52.088;5.402;2022-12-26T03:54:35;27.67;;;12.85;;
76320;SDS011;65132;52.088;5.402;2022-12-26T03:57:23;25.52;;;11.90;;
76320;SDS011;65132;52.088;5.402;2022-12-26T04:00:05;25.35;;;12.45;;
76320;SDS011;65132;52.088;5.402;2022-12-26T04:05:03;26.65;;;12.68;;
76320;SDS011;65132;52.088;5.402;2022-12-26T04:07:32;30.65;;;14.70;;
76320;SDS011;65132;52.088;5.402;2022-12-26T04:10:29;26.52;;;12.32;;
76320;SDS011;65132;52.088;5.402;2022-12-26T04:13:00;23.77;;;11.82;;
76320;SDS011;65132;52.088;5.402;2022-12-26T04:18:11;25.80;;;11.98;;
76320;SDS011;65132;52.088;5.402;2022-12-26T04:23:41;22.25;;;10.73;;
76320;SDS011;65132;52.088;5.402;2022-12-26T04:26:13;23.83;;;11.18;;
76320;SDS011;65132;52.088;5.402;2022-12-26T04:28:44;23.38;;;11.32;;
76320;SDS011;65132;52.088;5.402;2022-12-26T04:31:13;26.90;;;11.95;;
76320;SDS011;65132;52.088;5.402;2022-12-26T04:34:08;26.13;;;12.15;;
76320;SDS011;65132;52.088;5.402;2022-12-26T04:36:55;22.42;;;9.77;;
76320;SDS011;65132;52.088;5.402;2022-12-26T04:39:28;27.90;;;12.90;;
76320;SDS011;65132;52.088;5.402;2022-12-26T04:41:57;28.38;;;14.23;;
76320;SDS011;65132;52.088;5.402;2022-12-26T04:44:25;23.15;;;11.00;;
76320;SDS011;65132;52.088;5.402;2022-12-26T04:46:53;27.48;;;13.70;;
76320;SDS011;65132;52.088;5.402;2022-12-26T04:49:21;29.63;;;13.20;;
76320;SDS011;65132;52.088;5.402;2022-12-26T04:51:48;34.67;;;15.82;;
76320;SDS011;65132;52.088;5.402;2022-12-26T04:54:15;30.73;;;13.82;;
76320;SDS011;65132;52.088;5.402;2022-12-26T04:56:41;35.40;;;16.33;;
76320;SDS011;65132;52.088;5.402;2022-12-26T04:59:08;32.90;;;14.32;;
76320;SDS011;65132;52.088;5.402;2022-12-26T05:01:34;33.20;;;13.88;;
76320;SDS011;65132;52.088;5.402;2022-12-26T05:04:01;34.05;;;15.02;;
76320;SDS011;65132;52.088;5.402;2022-12-26T05:06:27;35.15;;;15.10;;
76320;SDS011;65132;52.088;5.402;2022-12-26T05:08:54;31.00;;;12.85;;
76320;SDS011;65132;52.088;5.402;2022-12-26T05:11:21;36.97;;;16.52;;
76320;SDS011;65132;52.088;5.402;2022-12-26T05:13:48;29.42;;;12.90;;
76320;SDS011;65132;52.088;5.402;2022-12-26T05:16:16;31.25;;;13.63;;
76320;SDS011;65132;52.088;5.402;2022-12-26T05:18:42;34.60;;;14.60;;
76320;SDS011;65132;52.088;5.402;2022-12-26T05:21:12;32.63;;;14.32;;
76320;SDS011;65132;52.088;5.402;2022-12-26T05:23:42;34.83;;;14.32;;
76320;SDS011;65132;52.088;5.402;2022-12-26T05:26:19;31.20;;;13.13;;
76320;SDS011;65132;52.088;5.402;2022-12-26T05:28:54;29.15;;;13.35;;
76320;SDS011;65132;52.088;5.402;2022-12-26T05:31:24;26.70;;;11.15;;
76320;SDS011;65132;52.088;5.402;2022-12-26T05:33:59;28.25;;;12.65;;
76320;SDS011;65132;52.088;5.402;2022-12-26T05:36:28;28.48;;;12.73;;
76320;SDS011;65132;52.088;5.402;2022-12-26T05:38:57;23.55;;;11.35;;
76320;SDS011;65132;52.088;5.402;2022-12-26T05:41:23;23.05;;;10.80;;
76320;SDS011;65132;52.088;5.402;2022-12-26T05:43:50;20.63;;;8.60;;
76320;SDS011;65132;52.088;5.402;2022-12-26T05:46:16;20.15;;;9.60;;
76320;SDS011;65132;52.088;5.402;2022-12-26T05:48:43;23.92;;;10.50;;
76320;SDS011;65132;52.088;5.402;2022-12-26T05:51:09;22.00;;;9.95;;
76320;SDS011;65132;52.088;5.402;2022-12-26T05:53:36;22.50;;;10.63;;
76320;SDS011;65132;52.088;5.402;2022-12-26T05:56:06;20.40;;;9.15;;
76320;SDS011;65132;52.088;5.402;2022-12-26T05:58:37;22.17;;;9.85;;
76320;SDS011;65132;52.088;5.402;2022-12-26T06:01:04;21.30;;;9.90;;
76320;SDS011;65132;52.088;5.402;2022-12-26T06:03:39;20.73;;;8.85;;
76320;SDS011;65132;52.088;5.402;2022-12-26T06:06:08;15.70;;;7.25;;
76320;SDS011;65132;52.088;5.402;2022-12-26T06:08:35;19.60;;;8.02;;
76320;SDS011;65132;52.088;5.402;2022-12-26T06:11:03;15.30;;;7.80;;
76320;SDS011;65132;52.088;5.402;2022-12-26T06:13:34;16.90;;;7.38;;
76320;SDS011;65132;52.088;5.402;2022-12-26T06:16:07;15.23;;;7.05;;
76320;SDS011;65132;52.088;5.402;2022-12-26T06:18:35;12.88;;;6.75;;
76320;SDS011;65132;52.088;5.402;2022-12-26T06:21:03;16.17;;;7.25;;
76320;SDS011;65132;52.088;5.402;2022-12-26T06:23:31;11.65;;;6.22;;
76320;SDS011;65132;52.088;5.402;2022-12-26T06:25:58;14.93;;;6.85;;
76320;SDS011;65132;52.088;5.402;2022-12-26T06:28:24;13.55;;;6.65;;
76320;SDS011;65132;52.088;5.402;2022-12-26T06:30:51;12.25;;;6.20;;
76320;SDS011;65132;52.088;5.402;2022-12-26T06:33:18;11.98;;;5.20;;
76320;SDS011;65132;52.088;5.402;2022-12-26T06:35:44;11.10;;;4.53;;
76320;SDS011;65132;52.088;5.402;2022-12-26T06:38:11;12.40;;;5.38;;
76320;SDS011;65132;52.088;5.402;2022-12-26T06:40:40;10.23;;;5.60;;
76320;SDS011;65132;52.088;5.402;2022-12-26T06:43:07;13.60;;;6.30;;
76320;SDS011;65132;52.088;5.402;2022-12-26T06:45:34;16.45;;;6.45;;
76320;SDS011;65132;52.088;5.402;2022-12-26T06:48:01;11.95;;;5.25;;
76320;SDS011;65132;52.088;5.402;2022-12-26T06:50:27;13.63;;;5.60;;
76320;SDS011;65132;52.088;5.402;2022-12-26T06:52:54;11.63;;;5.60;;
76320;SDS011;65132;52.088;5.402;2022-12-26T06:55:20;13.70;;;6.65;;
76320;SDS011;65132;52.088;5.402;2022-12-26T06:57:47;11.00;;;5.65;;
76320;SDS011;65132;52.088;5.402;2022-12-26T07:00:16;10.15;;;5.18;;
76320;SDS011;65132;52.088;5.402;2022-12-26T07:02:42;10.68;;;4.78;;
76320;SDS011;65132;52.088;5.402;2022-12-26T07:05:09;10.13;;;5.03;;
76320;SDS011;65132;52.088;5.402;2022-12-26T07:07:35;12.13;;;4.22;;
76320;SDS011;65132;52.088;5.402;2022-12-26T07:10:02;12.45;;;6.25;;
76320;SDS011;65132;52.088;5.402;2022-12-26T07:12:28;14.77;;;6.63;;
76320;SDS011;65132;52.088;5.402;2022-12-26T07:14:55;12.18;;;5.57;;
76320;SDS011;65132;52.088;5.402;2022-12-26T07:17:27;13.27;;;6.50;;
76320;SDS011;65132;52.088;5.402;2022-12-26T07:19:53;12.55;;;5.70;;
76320;SDS011;65132;52.088;5.402;2022-12-26T07:22:20;12.18;;;5.80;;
76320;SDS011;65132;52.088;5.402;2022-12-26T07:24:46;9.60;;;4.82;;
76320;SDS011;65132;52.088;5.402;2022-12-26T07:27:12;11.75;;;5.35;;
76320;SDS011;65132;52.088;5.402;2022-12-26T07:29:39;12.82;;;6.30;;
76320;SDS011;65132;52.088;5.402;2022-12-26T07:32:05;10.85;;;5.85;;
76320;SDS011;65132;52.088;5.402;2022-12-26T07:34:31;10.23;;;5.40;;
76320;SDS011;65132;52.088;5.402;2022-12-26T07:36:58;13.95;;;5.55;;
76320;SDS011;65132;52.088;5.402;2022-12-26T07:39:24;9.85;;;4.72;;
76320;SDS011;65132;52.088;5.402;2022-12-26T07:41:51;9.73;;;4.70;;
76320;SDS011;65132;52.088;5.402;2022-12-26T07:44:17;10.10;;;4.95;;
76320;SDS011;65132;52.088;5.402;2022-12-26T07:46:43;13.10;;;5.57;;
76320;SDS011;65132;52.088;5.402;2022-12-26T07:49:10;10.75;;;5.65;;
76320;SDS011;65132;52.088;5.402;2022-12-26T07:51:37;12.25;;;4.32;;
76320;SDS011;65132;52.088;5.402;2022-12-26T07:54:03;12.90;;;4.72;;
76320;SDS011;65132;52.088;5.402;2022-12-26T07:56:36;12.07;;;4.60;;
76320;SDS011;65132;52.088;5.402;2022-12-26T07:59:03;7.10;;;4.43;;
76320;SDS011;65132;52.088;5.402;2022-12-26T08:01:29;10.23;;;5.43;;
76320;SDS011;65132;52.088;5.402;2022-12-26T08:03:56;8.85;;;4.00;;
76320;SDS011;65132;52.088;5.402;2022-12-26T08:06:23;8.80;;;3.72;;
76320;SDS011;65132;52.088;5.402;2022-12-26T08:08:49;12.15;;;4.82;;
76320;SDS011;65132;52.088;5.402;2022-12-26T08:11:18;9.90;;;5.28;;
76320;SDS011;65132;52.088;5.402;2022-12-26T08:13:46;10.00;;;4.18;;
76320;SDS011;65132;52.088;5.402;2022-12-26T08:16:13;8.93;;;3.78;;
76320;SDS011;65132;52.088;5.402;2022-12-26T08:18:40;7.40;;;2.25;;
76320;SDS011;65132;52.088;5.402;2022-12-26T08:21:07;6.05;;;2.90;;
76320;SDS011;65132;52.088;5.402;2022-12-26T08:23:33;6.45;;;2.58;;
76320;SDS011;65132;52.088;5.402;2022-12-26T08:26:07;5.75;;;2.55;;
76320;SDS011;65132;52.088;5.402;2022-12-26T08:28:35;9.38;;;2.75;;
76320;SDS011;65132;52.088;5.402;2022-12-26T08:31:08;6.88;;;2.80;;
76320;SDS011;65132;52.088;5.402;2022-12-26T08:33:37;7.35;;;3.17;;
76320;SDS011;65132;52.088;5.402;2022-12-26T08:36:04;5.22;;;2.13;;
76320;SDS011;65132;52.088;5.402;2022-12-26T08:38:33;5.72;;;2.47;;
76320;SDS011;65132;52.088;5.402;2022-12-26T08:41:00;7.35;;;2.17;;
76320;SDS011;65132;52.088;5.402;2022-12-26T08:43:27;6.35;;;2.55;;
76320;SDS011;65132;52.088;5.402;2022-12-26T08:46:14;7.60;;;2.80;;
76320;SDS011;65132;52.088;5.402;2022-12-26T08:48:42;9.57;;;2.45;;
76320;SDS011;65132;52.088;5.402;2022-12-26T08:51:13;6.07;;;2.30;;
76320;SDS011;65132;52.088;5.402;2022-12-26T08:53:41;6.43;;;2.47;;
76320;SDS011;65132;52.088;5.402;2022-12-26T08:56:12;6.70;;;3.28;;
76320;SDS011;65132;52.088;5.402;2022-12-26T08:58:40;7.63;;;1.85;;
76320;SDS011;65132;52.088;5.402;2022-12-26T09:03:42;4.05;;;1.92;;
76320;SDS011;65132;52.088;5.402;2022-12-26T09:06:10;7.28;;;2.30;;
76320;SDS011;65132;52.088;5.402;2022-12-26T09:08:38;6.03;;;2.97;;
76320;SDS011;65132;52.088;5.402;2022-12-26T09:11:07;7.63;;;2.35;;
76320;SDS011;65132;52.088;5.402;2022-12-26T09:13:36;4.00;;;2.17;;
76320;SDS011;65132;52.088;5.402;2022-12-26T09:16:04;5.28;;;2.30;;
76320;SDS011;65132;52.088;5.402;2022-12-26T09:18:31;6.85;;;2.92;;
76320;SDS011;65132;52.088;5.402;2022-12-26T09:20:58;6.63;;;2.40;;
76320;SDS011;65132;52.088;5.402;2022-12-26T09:23:26;5.53;;;2.78;;
76320;SDS011;65132;52.088;5.402;2022-12-26T09:25:53;5.03;;;2.28;;
76320;SDS011;65132;52.088;5.402;2022-12-26T09:28:20;6.10;;;2.10;;
76320;SDS011;65132;52.088;5.402;2022-12-26T09:30:47;6.57;;;2.30;;
76320;SDS011;65132;52.088;5.402;2022-12-26T09:33:13;6.25;;;2.15;;
76320;SDS011;65132;52.088;5.402;2022-12-26T09:35:40;5.47;;;2.22;;
76320;SDS011;65132;52.088;5.402;2022-12-26T09:38:07;6.13;;;1.83;;
76320;SDS011;65132;52.088;5.402;2022-12-26T09:43:42;5.57;;;2.08;;
76320;SDS011;65132;52.088;5.402;2022-12-26T09:46:17;6.85;;;1.70;;
76320;SDS011;65132;52.088;5.402;2022-12-26T09:48:51;6.18;;;1.90;;
76320;SDS011;65132;52.088;5.402;2022-12-26T09:51:24;9.98;;;2.05;;
76320;SDS011;65132;52.088;5.402;2022-12-26T09:53:52;5.97;;;2.17;;
76320;SDS011;65132;52.088;5.402;2022-12-26T09:56:20;4.72;;;2.20;;
76320;SDS011;65132;52.088;5.402;2022-12-26T09:59:16;5.68;;;1.90;;
76320;SDS011;65132;52.088;5.402;2022-12-26T10:01:46;7.90;;;1.83;;
76320;SDS011;65132;52.088;5.402;2022-12-26T10:04:23;10.25;;;1.13;;
76320;SDS011;65132;52.088;5.402;2022-12-26T10:12:35;7.22;;;0.88;;
76320;SDS011;65132;52.088;5.402;2022-12-26T10:15:14;8.45;;;1.42;;
76320;SDS011;65132;52.088;5.402;2022-12-26T10:17:59;7.70;;;1.23;;
76320;SDS011;65132;52.088;5.402;2022-12-26T10:31:05;13.48;;;1.20;;
76320;SDS011;65132;52.088;5.402;2022-12-26T10:37:13;3.95;;;0.52;;
76320;SDS011;65132;52.088;5.402;2022-12-26T10:45:49;7.28;;;0.77;;
76320;SDS011;65132;52.088;5.402;2022-12-26T10:48:28;8.57;;;0.77;;
76320;SDS011;65132;52.088;5.402;2022-12-26T10:50:54;7.90;;;0.70;;
76320;SDS011;65132;52.088;5.402;2022-12-26T10:53:21;5.25;;;0.60;;
76320;SDS011;65132;52.088;5.402;2022-12-26T10:55:47;7.20;;;1.15;;
76320;SDS011;65132;52.088;5.402;2022-12-26T10:58:15;6.60;;;1.00;;
76320;SDS011;65132;52.088;5.402;2022-12-26T11:00:45;6.03;;;0.65;;
76320;SDS011;65132;52.088;5.402;2022-12-26T11:03:12;9.40;;;1.20;;
76320;SDS011;65132;52.088;5.402;2022-12-26T11:05:45;6.47;;;1.35;;
76320;SDS011;65132;52.088;5.402;2022-12-26T11:11:13;4.10;;;0.70;;
76320;SDS011;65132;52.088;5.402;2022-12-26T11:13:48;6.60;;;0.90;;
76320;SDS011;65132;52.088;5.402;2022-12-26T11:16:28;5.68;;;1.17;;
76320;SDS011;65132;52.088;5.402;2022-12-26T11:19:03;4.35;;;0.75;;
76320;SDS011;65132;52.088;5.402;2022-12-26T11:21:30;3.53;;;0.47;;
76320;SDS011;65132;52.088;5.402;2022-12-26T11:26:34;2.95;;;0.40;;
76320;SDS011;65132;52.088;5.402;2022-12-26T11:31:37;5.68;;;1.00;;
76320;SDS011;65132;52.088;5.402;2022-12-26T11:34:07;4.95;;;0.60;;
76320;SDS011;65132;52.088;5.402;2022-12-26T11:36:36;5.18;;;0.40;;
76320;SDS011;65132;52.088;5.402;2022-12-26T11:39:19;5.07;;;0.30;;
76320;SDS011;65132;52.088;5.402;2022-12-26T11:41:51;4.45;;;0.50;;
76320;SDS011;65132;52.088;5.402;2022-12-26T11:44:29;2.40;;;0.17;;
76320;SDS011;65132;52.088;5.402;2022-12-26T11:46:59;5.05;;;1.30;;
76320;SDS011;65132;52.088;5.402;2022-12-26T11:49:35;6.43;;;0.85;;
76320;SDS011;65132;52.088;5.402;2022-12-26T11:58:14;4.43;;;0.38;;
76320;SDS011;65132;52.088;5.402;2022-12-26T12:03:17;5.32;;;0.50;;
76320;SDS011;65132;52.088;5.402;2022-12-26T12:06:24;3.45;;;0.57;;
76320;SDS011;65132;52.088;5.402;2022-12-26T12:11:30;2.97;;;0.28;;
76320;SDS011;65132;52.088;5.402;2022-12-26T12:24:59;1.65;;;0.20;;
76320;SDS011;65132;52.088;5.402;2022-12-26T12:30:23;3.53;;;0.60;;
76320;SDS011;65132;52.088;5.402;2022-12-26T12:38:35;2.55;;;0.30;;
76320;SDS011;65132;52.088;5.402;2022-12-26T12:47:14;5.25;;;0.60;;
76320;SDS011;65132;52.088;5.402;2022-12-26T12:58:05;1.92;;;0.22;;
76320;SDS011;65132;52.088;5.402;2022-12-26T13:00:48;3.03;;;0.30;;
76320;SDS011;65132;52.088;5.402;2022-12-26T13:05:53;2.63;;;0.50;;
76320;SDS011;65132;52.088;5.402;2022-12-26T13:08:44;3.00;;;0.22;;
76320;SDS011;65132;52.088;5.402;2022-12-26T13:11:21;2.50;;;0.32;;
76320;SDS011;65132;52.088;5.402;2022-12-26T13:16:32;2.30;;;0.55;;
76320;SDS011;65132;52.088;5.402;2022-12-26T13:19:05;4.15;;;0.38;;
76320;SDS011;65132;52.088;5.402;2022-12-26T13:21:36;1.98;;;0.43;;
76320;SDS011;65132;52.088;5.402;2022-12-26T13:24:12;2.63;;;0.30;;
76320;SDS011;65132;52.088;5.402;2022-12-26T13:26:45;4.40;;;0.50;;
76320;SDS011;65132;52.088;5.402;2022-12-26T13:29:22;4.22;;;0.35;;
76320;SDS011;65132;52.088;5.402;2022-12-26T13:31:59;3.75;;;0.38;;
76320;SDS011;65132;52.088;5.402;2022-12-26T13:34:27;2.83;;;0.32;;
76320;SDS011;65132;52.088;5.402;2022-12-26T13:36:54;4.72;;;0.65;;
76320;SDS011;65132;52.088;5.402;2022-12-26T13:44:33;3.47;;;0.60;;
76320;SDS011;65132;52.088;5.402;2022-12-26T13:46:59;6.20;;;0.50;;
76320;SDS011;65132;52.088;5.402;2022-12-26T13:49:36;2.47;;;0.50;;
76320;SDS011;65132;52.088;5.402;2022-12-26T13:57:17;4.68;;;0.65;;
76320;SDS011;65132;52.088;5.402;2022-12-26T13:59:56;3.22;;;0.70;;
76320;SDS011;65132;52.088;5.402;2022-12-26T14:08:36;6.50;;;0.60;;
76320;SDS011;65132;52.088;5.402;2022-12-26T14:11:26;5.55;;;0.73;;
76320;SDS011;65132;52.088;5.402;2022-12-26T14:14:27;3.00;;;0.45;;
76320;SDS011;65132;52.088;5.402;2022-12-26T14:19:37;5.70;;;0.70;;
76320;SDS011;65132;52.088;5.402;2022-12-26T14:22:24;3.30;;;0.50;;
76320;SDS011;65132;52.088;5.402;2022-12-26T14:27:36;4.43;;;0.50;;
76320;SDS011;65132;52.088;5.402;2022-12-26T14:30:17;3.95;;;0.38;;
76320;SDS011;65132;52.088;5.402;2022-12-26T14:35:34;5.25;;;0.57;;
76320;SDS011;65132;52.088;5.402;2022-12-26T14:41:15;4.88;;;0.30;;
76320;SDS011;65132;52.088;5.402;2022-12-26T14:43:42;3.83;;;0.40;;
76320;SDS011;65132;52.088;5.402;2022-12-26T14:48:58;5.95;;;0.70;;
76320;SDS011;65132;52.088;5.402;2022-12-26T14:51:42;5.03;;;1.48;;
76320;SDS011;65132;52.088;5.402;2022-12-26T14:56:42;5.10;;;1.42;;
76320;SDS011;65132;52.088;5.402;2022-12-26T15:15:59;12.07;;;4.32;;
76320;SDS011;65132;52.088;5.402;2022-12-26T15:24:31;18.52;;;7.03;;
76320;SDS011;65132;52.088;5.402;2022-12-26T15:30:53;8.07;;;1.50;;
76320;SDS011;65132;52.088;5.402;2022-12-26T15:33:49;25.27;;;12.80;;
76320;SDS011;65132;52.088;5.402;2022-12-26T15:36:27;7.63;;;3.17;;
76320;SDS011;65132;52.088;5.402;2022-12-26T15:44:58;8.90;;;1.48;;
76320;SDS011;65132;52.088;5.402;2022-12-26T15:50:49;5.35;;;0.75;;
76320;SDS011;65132;52.088;5.402;2022-12-26T15:53:42;32.30;;;19.35;;
76320;SDS011;65132;52.088;5.402;2022-12-26T16:01:58;16.30;;;8.30;;
76320;SDS011;65132;52.088;5.402;2022-12-26T16:04:36;22.42;;;11.63;;
76320;SDS011;65132;52.088;5.402;2022-12-26T16:07:20;8.52;;;2.60;;
76320;SDS011;65132;52.088;5.402;2022-12-26T16:09:56;8.85;;;5.22;;
76320;SDS011;65132;52.088;5.402;2022-12-26T16:12:30;8.88;;;5.85;;
76320;SDS011;65132;52.088;5.402;2022-12-26T16:17:39;9.60;;;4.22;;
76320;SDS011;65132;52.088;5.402;2022-12-26T16:22:48;4.20;;;1.00;;
76320;SDS011;65132;52.088;5.402;2022-12-26T16:25:22;4.85;;;1.85;;
76320;SDS011;65132;52.088;5.402;2022-12-26T16:27:51;9.70;;;2.05;;
76320;SDS011;65132;52.088;5.402;2022-12-26T16:30:22;7.78;;;1.80;;
76320;SDS011;65132;52.088;5.402;2022-12-26T16:32:51;4.68;;;0.98;;
76320;SDS011;65132;52.088;5.402;2022-12-26T16:35:30;4.03;;;1.10;;
76320;SDS011;65132;52.088;5.402;2022-12-26T16:37:59;5.25;;;1.05;;
76320;SDS011;65132;52.088;5.402;2022-12-26T16:40:29;4.95;;;1.75;;
76320;SDS011;65132;52.088;5.402;2022-12-26T16:45:29;9.23;;;1.70;;
76320;SDS011;65132;52.088;5.402;2022-12-26T16:47:59;6.22;;;2.15;;
76320;SDS011;65132;52.088;5.402;2022-12-26T16:50:27;6.25;;;2.45;;
76320;SDS011;65132;52.088;5.402;2022-12-26T16:53:09;6.75;;;2.63;;
76320;SDS011;65132;52.088;5.402;2022-12-26T16:55:44;7.32;;;2.00;;
76320;SDS011;65132;52.088;5.402;2022-12-26T16:58:21;4.32;;;1.42;;
76320;SDS011;65132;52.088;5.402;2022-12-26T17:01:03;6.20;;;1.77;;
76320;SDS011;65132;52.088;5.402;2022-12-26T17:03:35;9.02;;;2.05;;
76320;SDS011;65132;52.088;5.402;2022-12-26T17:06:14;6.68;;;2.45;;
76320;SDS011;65132;52.088;5.402;2022-12-26T17:08:49;7.72;;;1.90;;
76320;SDS011;65132;52.088;5.402;2022-12-26T17:11:17;6.63;;;1.98;;
76320;SDS011;65132;52.088;5.402;2022-12-26T17:13:52;9.65;;;1.88;;
76320;SDS011;65132;52.088;5.402;2022-12-26T17:16:24;4.85;;;2.03;;
76320;SDS011;65132;52.088;5.402;2022-12-26T17:18:53;7.63;;;1.65;;
76320;SDS011;65132;52.088;5.402;2022-12-26T17:23:59;8.23;;;1.98;;
76320;SDS011;65132;52.088;5.402;2022-12-26T17:26:30;7.78;;;2.03;;
76320;SDS011;65132;52.088;5.402;2022-12-26T17:28:58;10.15;;;2.55;;
76320;SDS011;65132;52.088;5.402;2022-12-26T17:31:29;7.80;;;2.13;;
76320;SDS011;65132;52.088;5.402;2022-12-26T17:34:26;5.60;;;1.95;;
76320;SDS011;65132;52.088;5.402;2022-12-26T17:36:51;7.50;;;1.67;;
76320;SDS011;65132;52.088;5.402;2022-12-26T17:39:38;8.63;;;1.58;;
76320;SDS011;65132;52.088;5.402;2022-12-26T17:42:05;9.43;;;2.65;;
76320;SDS011;65132;52.088;5.402;2022-12-26T17:44:32;7.68;;;2.10;;
76320;SDS011;65132;52.088;5.402;2022-12-26T17:47:14;11.32;;;1.88;;
76320;SDS011;65132;52.088;5.402;2022-12-26T17:49:41;12.57;;;5.53;;
76320;SDS011;65132;52.088;5.402;2022-12-26T17:52:09;10.63;;;2.40;;
76320;SDS011;65132;52.088;5.402;2022-12-26T17:54:37;10.25;;;3.00;;
76320;SDS011;65132;52.088;5.402;2022-12-26T17:57:04;6.60;;;1.95;;
76320;SDS011;65132;52.088;5.402;2022-12-26T17:59:30;17.83;;;9.25;;
76320;SDS011;65132;52.088;5.402;2022-12-26T18:01:56;13.15;;;7.28;;
76320;SDS011;65132;52.088;5.402;2022-12-26T18:04:23;8.52;;;3.45;;
76320;SDS011;65132;52.088;5.402;2022-12-26T18:06:50;11.07;;;6.15;;
76320;SDS011;65132;52.088;5.402;2022-12-26T18:09:22;16.85;;;7.43;;
76320;SDS011;65132;52.088;5.402;2022-12-26T18:11:51;34.33;;;17.25;;
76320;SDS011;65132;52.088;5.402;2022-12-26T18:14:18;39.03;;;14.20;;
76320;SDS011;65132;52.088;5.402;2022-12-26T18:16:45;22.15;;;7.32;;
76320;SDS011;65132;52.088;5.402;2022-12-26T18:19:14;14.38;;;5.00;;
76320;SDS011;65132;52.088;5.402;2022-12-26T18:21:42;9.77;;;2.53;;
76320;SDS011;65132;52.088;5.402;2022-12-26T18:24:09;20.55;;;8.88;;
76320;SDS011;65132;52.088;5.402;2022-12-26T18:26:36;7.90;;;2.80;;
76320;SDS011;65132;52.088;5.402;2022-12-26T18:29:02;12.85;;;5.75;;
76320;SDS011;65132;52.088;5.402;2022-12-26T18:31:28;7.00;;;2.85;;
76320;SDS011;65132;52.088;5.402;2022-12-26T18:33:55;4.60;;;2.40;;
76320;SDS011;65132;52.088;5.402;2022-12-26T18:36:22;7.95;;;3.22;;
76320;SDS011;65132;52.088;5.402;2022-12-26T18:38:55;10.18;;;2.85;;